This is the latest recevied weather packets stored in our database for station/object N2UFM. If no packets are shown the sender has not sent any weather packets the latest 1 day(s).
| Time | Temp. | Humidity | Pressure | Rain* | Wind** | Luminosity | Snow |
|---|---|---|---|---|---|---|---|
| 1778099720 | 19.44° C | 81% | 1007.7 hPa | 0 mm | - | - | - |
| 1778097919 | 18.89° C | 81% | 1007.9 hPa | 0 mm | - | - | - |
| 1778097619 | 18.89° C | 81% | 1008 hPa | 0 mm | - | - | - |
| 1778095518 | 18.89° C | 80% | 1008.3 hPa | 0 mm | - | - | - |
| 1778093417 | 18.89° C | 84% | 1008.5 hPa | 0 mm | - | - | - |
| 1778091916 | 20° C | 75% | 1008.6 hPa | 0 mm | - | - | - |
| 1778091616 | 20° C | 75% | 1008.6 hPa | 0 mm | - | - | - |
| 1778091316 | 20° C | 76% | 1008.7 hPa | 0 mm | - | - | - |
| 1778089515 | 20° C | 79% | 1008.7 hPa | 0.25 mm | - | - | - |
| 1778089215 | 20° C | 80% | 1008.7 hPa | 0.25 mm | - | - | - |
| 1778087414 | 19.44° C | 82% | 1009.1 hPa | 0.51 mm | - | - | - |
| 1778085313 | 18.89° C | 80% | 1010.1 hPa | 0.25 mm | - | - | - |
| 1778085013 | 19.44° C | 79% | 1010 hPa | 0.25 mm | - | - | - |
| 1778083212 | 21.67° C | 65% | 1010.2 hPa | 0 mm | - | - | - |
| 1778082912 | 21.67° C | 64% | 1010.2 hPa | 0 mm | - | - | - |
| 1778082612 | 22.22° C | 63% | 1010.3 hPa | 0 mm | - | - | - |
| 1778081411 | 21.67° C | 64% | 1010.2 hPa | 0 mm | - | - | - |
| 1778081111 | 21.67° C | 65% | 1010.1 hPa | 0 mm | - | - | - |
| 1778080811 | 21.67° C | 64% | 1010.1 hPa | 0 mm | - | - | - |
| 1778079310 | 22.22° C | 63% | 1010.5 hPa | 0 mm | - | - | - |
| 1778079010 | 22.78° C | 62% | 1010.5 hPa | 0 mm | - | - | - |
| 1778076909 | 21.67° C | 65% | 1010.2 hPa | 0 mm | - | - | - |
| 1778075408 | 21.67° C | 66% | 1010.5 hPa | 0 mm | - | - | - |
| 1778075108 | 21.67° C | 66% | 1010.4 hPa | 0 mm | - | - | - |
| 1778073907 | 21.67° C | 68% | 1010.6 hPa | 0 mm | - | - | - |
* Rain latest hour (hover to see other rain measurements)
** Current wind speed in m/s (hover to see current wind gust speed)